sensor_id;sensor_type;location;lat;lon;timestamp;temperature;humidity
61253;DHT22;47127;47.516;8.596;2023-02-20T00:02:14;9.30;99.90
61253;DHT22;47127;47.516;8.596;2023-02-20T00:04:40;9.20;99.90
61253;DHT22;47127;47.516;8.596;2023-02-20T00:07:06;9.20;99.90
61253;DHT22;47127;47.516;8.596;2023-02-20T00:09:31;9.30;99.90
61253;DHT22;47127;47.516;8.596;2023-02-20T00:11:57;9.20;99.90
61253;DHT22;47127;47.516;8.596;2023-02-20T00:14:23;9.20;99.90
61253;DHT22;47127;47.516;8.596;2023-02-20T00:16:48;9.10;99.90
61253;DHT22;47127;47.516;8.596;2023-02-20T00:19:14;9.00;99.90
61253;DHT22;47127;47.516;8.596;2023-02-20T00:21:49;9.10;99.90
61253;DHT22;47127;47.516;8.596;2023-02-20T00:24:16;9.10;99.90
61253;DHT22;47127;47.516;8.596;2023-02-20T00:26:50;9.10;99.90
61253;DHT22;47127;47.516;8.596;2023-02-20T00:29:17;9.20;99.90
61253;DHT22;47127;47.516;8.596;2023-02-20T00:31:52;9.10;99.90
61253;DHT22;47127;47.516;8.596;2023-02-20T00:34:19;9.10;99.90
61253;DHT22;47127;47.516;8.596;2023-02-20T00:36:45;9.00;99.90
61253;DHT22;47127;47.516;8.596;2023-02-20T00:39:10;9.00;99.90
61253;DHT22;47127;47.516;8.596;2023-02-20T00:41:36;8.90;99.90
61253;DHT22;47127;47.516;8.596;2023-02-20T00:44:02;9.00;99.90
61253;DHT22;47127;47.516;8.596;2023-02-20T00:46:27;9.00;99.90
61253;DHT22;47127;47.516;8.596;2023-02-20T00:48:53;8.90;99.90
61253;DHT22;47127;47.516;8.596;2023-02-20T00:51:18;9.00;99.90
61253;DHT22;47127;47.516;8.596;2023-02-20T00:53:44;8.90;99.90
61253;DHT22;47127;47.516;8.596;2023-02-20T00:56:10;9.00;99.90
61253;DHT22;47127;47.516;8.596;2023-02-20T00:58:35;9.00;99.90
61253;DHT22;47127;47.516;8.596;2023-02-20T01:01:01;8.90;99.90
61253;DHT22;47127;47.516;8.596;2023-02-20T01:03:26;8.90;99.90
61253;DHT22;47127;47.516;8.596;2023-02-20T01:05:52;8.90;99.90
61253;DHT22;47127;47.516;8.596;2023-02-20T01:08:17;8.80;99.90
61253;DHT22;47127;47.516;8.596;2023-02-20T01:10:43;8.80;99.90
61253;DHT22;47127;47.516;8.596;2023-02-20T01:13:08;8.80;99.90
61253;DHT22;47127;47.516;8.596;2023-02-20T01:15:34;8.80;99.90
61253;DHT22;47127;47.516;8.596;2023-02-20T01:17:59;8.80;99.90
61253;DHT22;47127;47.516;8.596;2023-02-20T01:20:25;8.70;99.90
61253;DHT22;47127;47.516;8.596;2023-02-20T01:22:50;8.70;99.90
61253;DHT22;47127;47.516;8.596;2023-02-20T01:25:16;8.70;99.90
61253;DHT22;47127;47.516;8.596;2023-02-20T01:27:42;8.70;99.90
61253;DHT22;47127;47.516;8.596;2023-02-20T01:30:08;8.60;99.90
61253;DHT22;47127;47.516;8.596;2023-02-20T01:32:33;8.50;99.90
61253;DHT22;47127;47.516;8.596;2023-02-20T01:34:59;8.60;99.90
61253;DHT22;47127;47.516;8.596;2023-02-20T01:37:24;8.60;99.90
61253;DHT22;47127;47.516;8.596;2023-02-20T01:39:50;8.60;99.90
61253;DHT22;47127;47.516;8.596;2023-02-20T01:42:22;8.60;99.90
61253;DHT22;47127;47.516;8.596;2023-02-20T01:44:49;8.50;99.90
61253;DHT22;47127;47.516;8.596;2023-02-20T01:47:17;8.50;99.90
61253;DHT22;47127;47.516;8.596;2023-02-20T01:49:50;8.50;99.90
61253;DHT22;47127;47.516;8.596;2023-02-20T01:52:20;8.40;99.90
61253;DHT22;47127;47.516;8.596;2023-02-20T01:57:27;8.60;99.90
61253;DHT22;47127;47.516;8.596;2023-02-20T01:59:56;8.60;99.90
61253;DHT22;47127;47.516;8.596;2023-02-20T02:02:27;8.60;99.90
61253;DHT22;47127;47.516;8.596;2023-02-20T02:04:55;8.60;99.90
61253;DHT22;47127;47.516;8.596;2023-02-20T02:07:20;8.60;99.90
61253;DHT22;47127;47.516;8.596;2023-02-20T02:09:51;8.60;99.90
61253;DHT22;47127;47.516;8.596;2023-02-20T02:12:18;8.50;99.90
61253;DHT22;47127;47.516;8.596;2023-02-20T02:14:43;8.50;99.90
61253;DHT22;47127;47.516;8.596;2023-02-20T02:28:45;8.50;99.90
61253;DHT22;47127;47.516;8.596;2023-02-20T02:40:27;8.50;99.90
61253;DHT22;47127;47.516;8.596;2023-02-20T02:46:04;8.50;99.90
61253;DHT22;47127;47.516;8.596;2023-02-20T02:48:39;8.50;99.90
61253;DHT22;47127;47.516;8.596;2023-02-20T02:51:18;8.40;99.90
61253;DHT22;47127;47.516;8.596;2023-02-20T02:54:24;8.40;99.90
61253;DHT22;47127;47.516;8.596;2023-02-20T02:57:14;8.40;99.90
61253;DHT22;47127;47.516;8.596;2023-02-20T02:59:39;8.50;99.90
61253;DHT22;47127;47.516;8.596;2023-02-20T03:02:09;8.50;99.90
61253;DHT22;47127;47.516;8.596;2023-02-20T03:04:36;8.50;99.90
61253;DHT22;47127;47.516;8.596;2023-02-20T03:07:09;8.50;99.90
61253;DHT22;47127;47.516;8.596;2023-02-20T03:09:40;8.40;99.90
61253;DHT22;47127;47.516;8.596;2023-02-20T03:12:08;8.30;99.90
61253;DHT22;47127;47.516;8.596;2023-02-20T03:17:56;8.30;99.90
61253;DHT22;47127;47.516;8.596;2023-02-20T03:20:24;8.30;99.90
61253;DHT22;47127;47.516;8.596;2023-02-20T03:22:59;8.30;99.90
61253;DHT22;47127;47.516;8.596;2023-02-20T03:25:55;8.30;99.90
61253;DHT22;47127;47.516;8.596;2023-02-20T03:28:37;8.30;99.90
61253;DHT22;47127;47.516;8.596;2023-02-20T03:31:16;8.30;99.90
61253;DHT22;47127;47.516;8.596;2023-02-20T03:34:08;8.30;99.90
61253;DHT22;47127;47.516;8.596;2023-02-20T03:37:04;8.30;99.90
61253;DHT22;47127;47.516;8.596;2023-02-20T03:39:53;8.20;99.90
61253;DHT22;47127;47.516;8.596;2023-02-20T03:42:41;8.20;99.90
61253;DHT22;47127;47.516;8.596;2023-02-20T03:45:27;8.10;99.90
61253;DHT22;47127;47.516;8.596;2023-02-20T03:47:58;7.90;99.90
61253;DHT22;47127;47.516;8.596;2023-02-20T03:50:25;7.90;99.90
61253;DHT22;47127;47.516;8.596;2023-02-20T03:53:09;7.80;99.90
61253;DHT22;47127;47.516;8.596;2023-02-20T03:55:35;7.90;99.90
61253;DHT22;47127;47.516;8.596;2023-02-20T03:58:04;7.80;99.90
61253;DHT22;47127;47.516;8.596;2023-02-20T04:00:34;7.80;99.90
61253;DHT22;47127;47.516;8.596;2023-02-20T04:03:08;7.60;99.90
61253;DHT22;47127;47.516;8.596;2023-02-20T04:05:37;7.40;99.90
61253;DHT22;47127;47.516;8.596;2023-02-20T04:08:20;7.10;99.90
61253;DHT22;47127;47.516;8.596;2023-02-20T04:10:55;7.10;99.90
61253;DHT22;47127;47.516;8.596;2023-02-20T04:13:23;7.10;99.90
61253;DHT22;47127;47.516;8.596;2023-02-20T04:15:50;7.10;99.90
61253;DHT22;47127;47.516;8.596;2023-02-20T04:18:17;7.10;99.90
61253;DHT22;47127;47.516;8.596;2023-02-20T04:20:45;7.10;99.90
61253;DHT22;47127;47.516;8.596;2023-02-20T04:23:18;7.00;99.90
61253;DHT22;47127;47.516;8.596;2023-02-20T04:28:12;6.90;99.90
61253;DHT22;47127;47.516;8.596;2023-02-20T04:30:38;6.90;99.90
61253;DHT22;47127;47.516;8.596;2023-02-20T04:33:03;7.00;99.90
61253;DHT22;47127;47.516;8.596;2023-02-20T04:35:29;7.00;99.90
61253;DHT22;47127;47.516;8.596;2023-02-20T04:37:54;7.00;99.90
61253;DHT22;47127;47.516;8.596;2023-02-20T04:40:22;7.00;99.90
61253;DHT22;47127;47.516;8.596;2023-02-20T04:42:48;7.00;99.90
61253;DHT22;47127;47.516;8.596;2023-02-20T04:45:14;6.90;99.90
61253;DHT22;47127;47.516;8.596;2023-02-20T04:47:42;6.80;99.90
61253;DHT22;47127;47.516;8.596;2023-02-20T04:50:08;6.70;99.90
61253;DHT22;47127;47.516;8.596;2023-02-20T04:52:34;6.60;99.90
61253;DHT22;47127;47.516;8.596;2023-02-20T04:55:00;6.60;99.90
61253;DHT22;47127;47.516;8.596;2023-02-20T04:57:25;6.60;99.90
61253;DHT22;47127;47.516;8.596;2023-02-20T04:59:51;6.50;99.90
61253;DHT22;47127;47.516;8.596;2023-02-20T05:02:16;6.30;99.90
61253;DHT22;47127;47.516;8.596;2023-02-20T05:04:42;6.10;99.90
61253;DHT22;47127;47.516;8.596;2023-02-20T05:07:07;6.00;99.90
61253;DHT22;47127;47.516;8.596;2023-02-20T05:09:33;6.10;99.90
61253;DHT22;47127;47.516;8.596;2023-02-20T05:11:58;6.10;99.90
61253;DHT22;47127;47.516;8.596;2023-02-20T05:14:24;6.10;99.90
61253;DHT22;47127;47.516;8.596;2023-02-20T05:16:49;6.20;99.90
61253;DHT22;47127;47.516;8.596;2023-02-20T05:19:18;6.20;99.90
61253;DHT22;47127;47.516;8.596;2023-02-20T05:21:44;6.20;99.90
61253;DHT22;47127;47.516;8.596;2023-02-20T05:24:28;6.30;99.90
61253;DHT22;47127;47.516;8.596;2023-02-20T05:26:55;6.30;99.90
61253;DHT22;47127;47.516;8.596;2023-02-20T05:29:21;6.30;99.90
61253;DHT22;47127;47.516;8.596;2023-02-20T05:31:46;6.20;99.90
61253;DHT22;47127;47.516;8.596;2023-02-20T05:34:12;6.20;99.90
61253;DHT22;47127;47.516;8.596;2023-02-20T05:36:37;6.20;99.90
61253;DHT22;47127;47.516;8.596;2023-02-20T05:39:04;6.20;99.90
61253;DHT22;47127;47.516;8.596;2023-02-20T05:41:29;6.20;99.90
61253;DHT22;47127;47.516;8.596;2023-02-20T05:43:55;6.10;99.90
61253;DHT22;47127;47.516;8.596;2023-02-20T05:46:23;6.10;99.90
61253;DHT22;47127;47.516;8.596;2023-02-20T05:48:49;6.00;99.90
61253;DHT22;47127;47.516;8.596;2023-02-20T05:51:28;6.00;99.90
61253;DHT22;47127;47.516;8.596;2023-02-20T05:53:55;6.00;99.90
61253;DHT22;47127;47.516;8.596;2023-02-20T05:56:21;6.00;99.90
61253;DHT22;47127;47.516;8.596;2023-02-20T05:58:47;5.90;99.90
61253;DHT22;47127;47.516;8.596;2023-02-20T06:01:24;5.90;99.90
61253;DHT22;47127;47.516;8.596;2023-02-20T06:03:51;5.90;99.90
61253;DHT22;47127;47.516;8.596;2023-02-20T06:06:17;5.80;99.90
61253;DHT22;47127;47.516;8.596;2023-02-20T06:08:43;5.80;99.90
61253;DHT22;47127;47.516;8.596;2023-02-20T06:11:11;5.80;99.90
61253;DHT22;47127;47.516;8.596;2023-02-20T06:13:41;5.80;99.90
61253;DHT22;47127;47.516;8.596;2023-02-20T06:16:07;5.90;99.90
61253;DHT22;47127;47.516;8.596;2023-02-20T06:18:33;5.80;99.90
61253;DHT22;47127;47.516;8.596;2023-02-20T06:21:02;5.80;99.90
61253;DHT22;47127;47.516;8.596;2023-02-20T06:23:27;5.70;99.90
61253;DHT22;47127;47.516;8.596;2023-02-20T06:25:53;5.60;99.90
61253;DHT22;47127;47.516;8.596;2023-02-20T06:28:18;5.50;99.90
61253;DHT22;47127;47.516;8.596;2023-02-20T06:30:46;5.40;99.90
61253;DHT22;47127;47.516;8.596;2023-02-20T06:33:11;5.40;99.90
61253;DHT22;47127;47.516;8.596;2023-02-20T06:35:37;5.40;99.90
61253;DHT22;47127;47.516;8.596;2023-02-20T06:38:02;5.40;99.90
61253;DHT22;47127;47.516;8.596;2023-02-20T06:40:28;5.40;99.90
61253;DHT22;47127;47.516;8.596;2023-02-20T06:42:53;5.40;99.90
61253;DHT22;47127;47.516;8.596;2023-02-20T06:45:19;5.50;99.90
61253;DHT22;47127;47.516;8.596;2023-02-20T06:47:44;5.40;99.90
61253;DHT22;47127;47.516;8.596;2023-02-20T06:50:10;5.40;99.90
61253;DHT22;47127;47.516;8.596;2023-02-20T06:52:35;5.30;99.90
61253;DHT22;47127;47.516;8.596;2023-02-20T06:55:01;5.30;99.90
61253;DHT22;47127;47.516;8.596;2023-02-20T06:57:27;5.30;99.90
61253;DHT22;47127;47.516;8.596;2023-02-20T06:59:52;5.40;99.90
61253;DHT22;47127;47.516;8.596;2023-02-20T07:02:18;5.40;99.90
61253;DHT22;47127;47.516;8.596;2023-02-20T07:04:47;5.50;99.90
61253;DHT22;47127;47.516;8.596;2023-02-20T07:07:13;5.70;99.90
61253;DHT22;47127;47.516;8.596;2023-02-20T07:09:42;5.80;99.90
61253;DHT22;47127;47.516;8.596;2023-02-20T07:12:07;5.90;99.90
61253;DHT22;47127;47.516;8.596;2023-02-20T07:14:33;5.90;99.90
61253;DHT22;47127;47.516;8.596;2023-02-20T07:16:58;5.80;99.90
61253;DHT22;47127;47.516;8.596;2023-02-20T07:19:24;5.90;99.90
61253;DHT22;47127;47.516;8.596;2023-02-20T07:21:49;6.10;99.90
61253;DHT22;47127;47.516;8.596;2023-02-20T07:24:15;6.20;99.90
61253;DHT22;47127;47.516;8.596;2023-02-20T07:26:41;6.10;99.90
61253;DHT22;47127;47.516;8.596;2023-02-20T07:29:07;6.10;99.90
61253;DHT22;47127;47.516;8.596;2023-02-20T07:31:33;6.00;99.90
61253;DHT22;47127;47.516;8.596;2023-02-20T07:33:59;6.00;99.90
61253;DHT22;47127;47.516;8.596;2023-02-20T07:36:24;6.00;99.90
61253;DHT22;47127;47.516;8.596;2023-02-20T07:38:58;6.10;99.90
61253;DHT22;47127;47.516;8.596;2023-02-20T07:41:25;6.20;99.90
61253;DHT22;47127;47.516;8.596;2023-02-20T07:43:54;6.30;99.90
61253;DHT22;47127;47.516;8.596;2023-02-20T07:46:19;6.30;99.90
61253;DHT22;47127;47.516;8.596;2023-02-20T07:48:45;6.30;99.90
61253;DHT22;47127;47.516;8.596;2023-02-20T07:51:10;6.40;99.90
61253;DHT22;47127;47.516;8.596;2023-02-20T07:53:36;6.50;99.90
61253;DHT22;47127;47.516;8.596;2023-02-20T07:56:03;6.60;99.90
61253;DHT22;47127;47.516;8.596;2023-02-20T07:58:29;6.70;99.90
61253;DHT22;47127;47.516;8.596;2023-02-20T08:00:54;6.80;99.90
61253;DHT22;47127;47.516;8.596;2023-02-20T08:03:20;6.90;99.90
61253;DHT22;47127;47.516;8.596;2023-02-20T08:05:46;7.00;99.90
61253;DHT22;47127;47.516;8.596;2023-02-20T08:08:11;7.10;99.90
61253;DHT22;47127;47.516;8.596;2023-02-20T08:10:37;7.10;99.90
61253;DHT22;47127;47.516;8.596;2023-02-20T08:13:03;7.20;99.90
61253;DHT22;47127;47.516;8.596;2023-02-20T08:15:29;7.40;99.90
61253;DHT22;47127;47.516;8.596;2023-02-20T08:17:55;7.40;99.90
61253;DHT22;47127;47.516;8.596;2023-02-20T08:20:21;7.50;99.90
61253;DHT22;47127;47.516;8.596;2023-02-20T08:22:49;7.60;99.90
61253;DHT22;47127;47.516;8.596;2023-02-20T08:25:15;7.70;99.90
61253;DHT22;47127;47.516;8.596;2023-02-20T08:27:46;7.80;99.90
61253;DHT22;47127;47.516;8.596;2023-02-20T08:30:21;8.00;99.90
61253;DHT22;47127;47.516;8.596;2023-02-20T08:32:51;8.00;99.90
61253;DHT22;47127;47.516;8.596;2023-02-20T08:35:17;8.10;99.90
61253;DHT22;47127;47.516;8.596;2023-02-20T08:37:44;8.00;99.90
61253;DHT22;47127;47.516;8.596;2023-02-20T08:40:09;8.10;99.90
61253;DHT22;47127;47.516;8.596;2023-02-20T08:42:35;8.20;99.90
61253;DHT22;47127;47.516;8.596;2023-02-20T08:45:06;8.30;99.90
61253;DHT22;47127;47.516;8.596;2023-02-20T08:47:32;8.40;99.90
61253;DHT22;47127;47.516;8.596;2023-02-20T08:49:58;8.40;99.90
61253;DHT22;47127;47.516;8.596;2023-02-20T08:52:23;8.50;99.90
61253;DHT22;47127;47.516;8.596;2023-02-20T08:54:49;8.60;99.90
61253;DHT22;47127;47.516;8.596;2023-02-20T08:57:15;8.70;99.90
61253;DHT22;47127;47.516;8.596;2023-02-20T08:59:41;8.70;99.90
61253;DHT22;47127;47.516;8.596;2023-02-20T09:02:15;8.80;99.90
61253;DHT22;47127;47.516;8.596;2023-02-20T09:04:42;8.90;99.90
61253;DHT22;47127;47.516;8.596;2023-02-20T09:07:09;8.90;99.90
61253;DHT22;47127;47.516;8.596;2023-02-20T09:09:34;9.00;99.90
61253;DHT22;47127;47.516;8.596;2023-02-20T09:12:00;9.10;99.90
61253;DHT22;47127;47.516;8.596;2023-02-20T09:14:25;9.20;99.90
61253;DHT22;47127;47.516;8.596;2023-02-20T09:16:52;9.20;99.90
61253;DHT22;47127;47.516;8.596;2023-02-20T09:19:17;9.30;99.90
61253;DHT22;47127;47.516;8.596;2023-02-20T09:21:46;9.40;99.90
61253;DHT22;47127;47.516;8.596;2023-02-20T09:24:12;9.50;99.90
61253;DHT22;47127;47.516;8.596;2023-02-20T09:26:37;9.70;99.90
61253;DHT22;47127;47.516;8.596;2023-02-20T09:29:03;9.70;99.90
61253;DHT22;47127;47.516;8.596;2023-02-20T09:31:28;9.70;99.90
61253;DHT22;47127;47.516;8.596;2023-02-20T09:33:54;9.70;99.90
61253;DHT22;47127;47.516;8.596;2023-02-20T09:36:19;9.80;99.90
61253;DHT22;47127;47.516;8.596;2023-02-20T09:38:45;10.00;99.90
61253;DHT22;47127;47.516;8.596;2023-02-20T09:46:35;10.20;99.90
61253;DHT22;47127;47.516;8.596;2023-02-20T09:49:05;10.20;99.90
61253;DHT22;47127;47.516;8.596;2023-02-20T09:51:36;10.30;99.90
61253;DHT22;47127;47.516;8.596;2023-02-20T09:56:57;10.50;99.90
61253;DHT22;47127;47.516;8.596;2023-02-20T09:59:40;10.50;99.90
61253;DHT22;47127;47.516;8.596;2023-02-20T10:02:17;10.60;99.90
61253;DHT22;47127;47.516;8.596;2023-02-20T10:04:49;10.70;99.90
61253;DHT22;47127;47.516;8.596;2023-02-20T10:07:37;10.80;99.90
61253;DHT22;47127;47.516;8.596;2023-02-20T10:10:27;10.90;99.90
61253;DHT22;47127;47.516;8.596;2023-02-20T10:13:20;10.90;99.90
61253;DHT22;47127;47.516;8.596;2023-02-20T10:18:33;11.10;99.90
61253;DHT22;47127;47.516;8.596;2023-02-20T10:21:16;11.10;99.90
61253;DHT22;47127;47.516;8.596;2023-02-20T10:23:48;11.10;99.90
61253;DHT22;47127;47.516;8.596;2023-02-20T10:26:21;11.20;99.90
61253;DHT22;47127;47.516;8.596;2023-02-20T10:28:49;11.20;99.90
61253;DHT22;47127;47.516;8.596;2023-02-20T10:31:24;11.20;99.90
61253;DHT22;47127;47.516;8.596;2023-02-20T10:33:56;11.20;99.90
61253;DHT22;47127;47.516;8.596;2023-02-20T10:36:39;11.20;99.90
61253;DHT22;47127;47.516;8.596;2023-02-20T10:39:13;11.20;99.90
61253;DHT22;47127;47.516;8.596;2023-02-20T10:44:24;11.30;99.90
61253;DHT22;47127;47.516;8.596;2023-02-20T10:47:06;11.40;99.90
61253;DHT22;47127;47.516;8.596;2023-02-20T10:49:45;11.40;99.90
61253;DHT22;47127;47.516;8.596;2023-02-20T10:52:17;11.50;99.90
61253;DHT22;47127;47.516;8.596;2023-02-20T10:54:51;11.70;99.90
61253;DHT22;47127;47.516;8.596;2023-02-20T10:57:28;11.90;99.90
61253;DHT22;47127;47.516;8.596;2023-02-20T11:02:34;12.00;99.90
61253;DHT22;47127;47.516;8.596;2023-02-20T11:05:15;12.20;99.90
61253;DHT22;47127;47.516;8.596;2023-02-20T11:07:42;12.40;99.90
61253;DHT22;47127;47.516;8.596;2023-02-20T11:10:08;12.30;99.90
61253;DHT22;47127;47.516;8.596;2023-02-20T11:12:38;12.30;99.90
61253;DHT22;47127;47.516;8.596;2023-02-20T11:15:08;12.10;99.90
61253;DHT22;47127;47.516;8.596;2023-02-20T11:17:37;12.10;99.90
61253;DHT22;47127;47.516;8.596;2023-02-20T11:20:03;12.30;99.90
61253;DHT22;47127;47.516;8.596;2023-02-20T11:22:39;12.50;99.90
61253;DHT22;47127;47.516;8.596;2023-02-20T11:25:26;12.70;99.90
61253;DHT22;47127;47.516;8.596;2023-02-20T11:28:19;12.90;99.90
61253;DHT22;47127;47.516;8.596;2023-02-20T11:30:48;13.00;99.90
61253;DHT22;47127;47.516;8.596;2023-02-20T11:33:20;13.20;99.90
61253;DHT22;47127;47.516;8.596;2023-02-20T11:35:57;13.30;99.90
61253;DHT22;47127;47.516;8.596;2023-02-20T11:38:28;13.10;99.80
61253;DHT22;47127;47.516;8.596;2023-02-20T11:43:31;13.20;99.90
61253;DHT22;47127;47.516;8.596;2023-02-20T11:46:09;13.10;99.90
61253;DHT22;47127;47.516;8.596;2023-02-20T11:48:35;13.10;99.90
61253;DHT22;47127;47.516;8.596;2023-02-20T11:51:01;13.50;99.90
61253;DHT22;47127;47.516;8.596;2023-02-20T11:53:29;13.50;99.90
61253;DHT22;47127;47.516;8.596;2023-02-20T11:56:17;13.80;99.40
61253;DHT22;47127;47.516;8.596;2023-02-20T11:58:44;14.20;99.00
61253;DHT22;47127;47.516;8.596;2023-02-20T12:01:30;14.40;98.60
61253;DHT22;47127;47.516;8.596;2023-02-20T12:03:58;14.50;98.20
61253;DHT22;47127;47.516;8.596;2023-02-20T12:06:38;14.60;97.90
61253;DHT22;47127;47.516;8.596;2023-02-20T12:09:10;14.80;97.50
61253;DHT22;47127;47.516;8.596;2023-02-20T12:11:38;14.80;97.20
61253;DHT22;47127;47.516;8.596;2023-02-20T12:14:10;15.00;97.50
61253;DHT22;47127;47.516;8.596;2023-02-20T12:28:15;15.30;94.40
61253;DHT22;47127;47.516;8.596;2023-02-20T12:35:49;15.70;94.50
61253;DHT22;47127;47.516;8.596;2023-02-20T12:38:48;15.60;94.20
61253;DHT22;47127;47.516;8.596;2023-02-20T12:49:57;16.00;90.50
61253;DHT22;47127;47.516;8.596;2023-02-20T12:52:44;16.10;88.50
61253;DHT22;47127;47.516;8.596;2023-02-20T12:58:25;16.30;89.40
61253;DHT22;47127;47.516;8.596;2023-02-20T13:00:54;16.30;87.40
61253;DHT22;47127;47.516;8.596;2023-02-20T13:05:51;16.40;90.00
61253;DHT22;47127;47.516;8.596;2023-02-20T13:08:27;16.40;88.80
61253;DHT22;47127;47.516;8.596;2023-02-20T13:11:08;16.40;89.00
61253;DHT22;47127;47.516;8.596;2023-02-20T13:13:50;16.50;86.30
61253;DHT22;47127;47.516;8.596;2023-02-20T13:16:29;16.50;86.50
61253;DHT22;47127;47.516;8.596;2023-02-20T13:21:40;16.90;83.30
61253;DHT22;47127;47.516;8.596;2023-02-20T13:24:29;16.80;82.70
61253;DHT22;47127;47.516;8.596;2023-02-20T13:27:06;16.80;82.20
61253;DHT22;47127;47.516;8.596;2023-02-20T13:29:34;16.80;80.40
61253;DHT22;47127;47.516;8.596;2023-02-20T13:32:21;16.90;79.30
61253;DHT22;47127;47.516;8.596;2023-02-20T13:34:48;17.00;76.80
61253;DHT22;47127;47.516;8.596;2023-02-20T13:40:33;17.10;75.50
61253;DHT22;47127;47.516;8.596;2023-02-20T13:45:44;16.90;75.80
61253;DHT22;47127;47.516;8.596;2023-02-20T13:48:37;16.80;76.50
61253;DHT22;47127;47.516;8.596;2023-02-20T13:54:22;17.00;72.50
61253;DHT22;47127;47.516;8.596;2023-02-20T13:56:53;17.20;73.30
61253;DHT22;47127;47.516;8.596;2023-02-20T13:59:20;17.50;69.10
61253;DHT22;47127;47.516;8.596;2023-02-20T14:01:54;17.70;70.60
61253;DHT22;47127;47.516;8.596;2023-02-20T14:04:21;17.60;69.50
61253;DHT22;47127;47.516;8.596;2023-02-20T14:06:53;17.90;69.70
61253;DHT22;47127;47.516;8.596;2023-02-20T14:09:22;17.90;68.20
61253;DHT22;47127;47.516;8.596;2023-02-20T14:11:50;17.90;67.10
61253;DHT22;47127;47.516;8.596;2023-02-20T14:14:29;18.20;66.10
61253;DHT22;47127;47.516;8.596;2023-02-20T14:17:14;17.90;65.80
61253;DHT22;47127;47.516;8.596;2023-02-20T14:19:42;18.10;65.00
61253;DHT22;47127;47.516;8.596;2023-02-20T14:25:21;17.90;67.00
61253;DHT22;47127;47.516;8.596;2023-02-20T14:27:45;17.90;65.60
61253;DHT22;47127;47.516;8.596;2023-02-20T14:32:43;18.00;64.50
61253;DHT22;47127;47.516;8.596;2023-02-20T14:35:33;18.00;64.10
61253;DHT22;47127;47.516;8.596;2023-02-20T14:40:44;17.90;64.30
61253;DHT22;47127;47.516;8.596;2023-02-20T14:43:17;17.70;65.00
61253;DHT22;47127;47.516;8.596;2023-02-20T14:45:45;17.30;64.20
61253;DHT22;47127;47.516;8.596;2023-02-20T14:48:29;17.20;64.90
61253;DHT22;47127;47.516;8.596;2023-02-20T14:53:28;17.40;66.60
61253;DHT22;47127;47.516;8.596;2023-02-20T14:55:53;17.30;67.60
61253;DHT22;47127;47.516;8.596;2023-02-20T14:58:20;17.30;66.20
61253;DHT22;47127;47.516;8.596;2023-02-20T15:00:49;17.20;66.20
61253;DHT22;47127;47.516;8.596;2023-02-20T15:03:25;17.50;66.70
61253;DHT22;47127;47.516;8.596;2023-02-20T15:05:51;17.60;65.40
61253;DHT22;47127;47.516;8.596;2023-02-20T15:10:45;17.80;65.30
61253;DHT22;47127;47.516;8.596;2023-02-20T15:13:15;18.00;65.30
61253;DHT22;47127;47.516;8.596;2023-02-20T15:15:48;18.50;64.00
61253;DHT22;47127;47.516;8.596;2023-02-20T15:18:39;18.50;63.10
61253;DHT22;47127;47.516;8.596;2023-02-20T15:21:03;18.50;63.30
61253;DHT22;47127;47.516;8.596;2023-02-20T15:23:33;18.60;62.90
61253;DHT22;47127;47.516;8.596;2023-02-20T15:26:30;18.40;63.30
61253;DHT22;47127;47.516;8.596;2023-02-20T15:29:17;18.30;63.70
61253;DHT22;47127;47.516;8.596;2023-02-20T15:32:03;18.50;63.60
61253;DHT22;47127;47.516;8.596;2023-02-20T15:34:34;18.70;62.90
61253;DHT22;47127;47.516;8.596;2023-02-20T15:37:11;18.60;62.70
61253;DHT22;47127;47.516;8.596;2023-02-20T15:39:39;18.70;62.40
61253;DHT22;47127;47.516;8.596;2023-02-20T15:42:10;18.90;62.50
61253;DHT22;47127;47.516;8.596;2023-02-20T15:44:36;18.90;63.20
61253;DHT22;47127;47.516;8.596;2023-02-20T15:47:02;18.90;61.60
61253;DHT22;47127;47.516;8.596;2023-02-20T15:49:28;19.00;61.00
61253;DHT22;47127;47.516;8.596;2023-02-20T15:51:54;19.00;61.90
61253;DHT22;47127;47.516;8.596;2023-02-20T15:54:19;19.20;61.00
61253;DHT22;47127;47.516;8.596;2023-02-20T15:56:45;19.10;60.80
61253;DHT22;47127;47.516;8.596;2023-02-20T15:59:12;19.20;60.40
61253;DHT22;47127;47.516;8.596;2023-02-20T16:01:38;19.40;60.30
61253;DHT22;47127;47.516;8.596;2023-02-20T16:04:05;19.60;60.40
61253;DHT22;47127;47.516;8.596;2023-02-20T16:06:31;20.00;59.70
61253;DHT22;47127;47.516;8.596;2023-02-20T16:08:57;20.10;58.90
61253;DHT22;47127;47.516;8.596;2023-02-20T16:11:25;20.60;59.30
61253;DHT22;47127;47.516;8.596;2023-02-20T16:13:55;21.50;57.60
61253;DHT22;47127;47.516;8.596;2023-02-20T16:16:27;22.30;55.90
61253;DHT22;47127;47.516;8.596;2023-02-20T16:18:54;23.20;54.50
61253;DHT22;47127;47.516;8.596;2023-02-20T16:21:21;23.70;53.30
61253;DHT22;47127;47.516;8.596;2023-02-20T16:23:47;23.70;52.50
61253;DHT22;47127;47.516;8.596;2023-02-20T16:26:16;22.60;52.90
61253;DHT22;47127;47.516;8.596;2023-02-20T16:28:42;21.00;55.10
61253;DHT22;47127;47.516;8.596;2023-02-20T16:31:10;19.40;57.50
61253;DHT22;47127;47.516;8.596;2023-02-20T16:33:36;18.20;60.20
61253;DHT22;47127;47.516;8.596;2023-02-20T16:36:01;17.30;62.90
61253;DHT22;47127;47.516;8.596;2023-02-20T16:38:27;16.60;66.00
61253;DHT22;47127;47.516;8.596;2023-02-20T16:40:53;16.10;67.80
61253;DHT22;47127;47.516;8.596;2023-02-20T16:43:21;15.70;70.80
61253;DHT22;47127;47.516;8.596;2023-02-20T16:45:50;15.30;73.20
61253;DHT22;47127;47.516;8.596;2023-02-20T16:48:18;14.90;75.30
61253;DHT22;47127;47.516;8.596;2023-02-20T16:50:47;14.80;76.50
61253;DHT22;47127;47.516;8.596;2023-02-20T16:53:14;14.40;78.10
61253;DHT22;47127;47.516;8.596;2023-02-20T16:55:40;14.30;80.00
61253;DHT22;47127;47.516;8.596;2023-02-20T16:58:11;14.10;80.70
61253;DHT22;47127;47.516;8.596;2023-02-20T17:00:39;13.90;82.10
61253;DHT22;47127;47.516;8.596;2023-02-20T17:03:06;13.70;83.30
61253;DHT22;47127;47.516;8.596;2023-02-20T17:05:33;13.50;85.20
61253;DHT22;47127;47.516;8.596;2023-02-20T17:07:59;13.40;87.20
61253;DHT22;47127;47.516;8.596;2023-02-20T17:10:26;13.30;88.80
61253;DHT22;47127;47.516;8.596;2023-02-20T17:12:53;13.20;89.90
61253;DHT22;47127;47.516;8.596;2023-02-20T17:15:20;13.00;90.60
61253;DHT22;47127;47.516;8.596;2023-02-20T17:17:47;12.80;91.40
61253;DHT22;47127;47.516;8.596;2023-02-20T17:20:16;12.70;92.20
61253;DHT22;47127;47.516;8.596;2023-02-20T17:22:42;12.50;93.20
61253;DHT22;47127;47.516;8.596;2023-02-20T17:25:12;12.20;94.20
61253;DHT22;47127;47.516;8.596;2023-02-20T17:27:38;12.00;95.50
61253;DHT22;47127;47.516;8.596;2023-02-20T17:30:04;11.70;96.90
61253;DHT22;47127;47.516;8.596;2023-02-20T17:32:30;11.50;98.10
61253;DHT22;47127;47.516;8.596;2023-02-20T17:34:55;11.40;98.90
61253;DHT22;47127;47.516;8.596;2023-02-20T17:37:21;11.30;99.50
61253;DHT22;47127;47.516;8.596;2023-02-20T17:39:47;11.20;99.90
61253;DHT22;47127;47.516;8.596;2023-02-20T17:42:14;11.10;99.90
61253;DHT22;47127;47.516;8.596;2023-02-20T17:44:39;11.10;99.90